• Join FlightAware (Why Join?)
  • Login
  • US Flag 
09:48PM EDT


 

Airport Tracker/Info


-or-


 

Live Flight TrackerFlight Track Log ✈ N45NF ✈ 14-Nov-2013 ✈ KRVS - 1F0

Flight Track Log - Related Links

Times and Time Zones

All times are in EST time to prevent confusion due to time zone crossing. See the N45NF flight status page for this flight to view local times or setup timezone preferences in your user account.

Time Position Orientation Groundspeed Altitude Reporting Facility
EST Latitude Longitude Course Direction KTS MPH feet Rate Location/Type
03:10PM 35.9950 -96.0003 133° Southeast 180 207 2,400  Level Kansas City Center
03:11PM 35.9753 -95.9742 133° Southeast 217 250 2,900 1,500 Climbing Kansas City Center
03:11PM 35.9750 -95.9358 91° East 245 282 3,900 3,480 Climbing Kansas City Center
03:12PM 35.9561 -95.8847 115° Southeast 246 283 6,600 3,780 Climbing Kansas City Center
03:12PM 35.9386 -95.8786 164° South 240 276 7,800 3,840 Climbing Kansas City Center
03:13PM 35.8931 -95.8692 170° South 235 270 10,600 3,900 Climbing Kansas City Center
03:13PM 35.8750 -95.8714 186° South 236 272 11,800 3,660 Climbing Kansas City Center
03:14PM 35.8267 -95.8678 177° South 238 274 14,400 1,800 Climbing Kansas City Center
03:15PM 35.7414 -95.8656 179° South 300 345 15,100 720 Climbing Kansas City Center
03:16PM 35.6492 -95.8969 195° South 353 406 16,000 420 Climbing Kansas City Center
03:17PM 35.5694 -95.9661 215° Southwest 354 407 16,000  Level Kansas City Center
03:18PM 35.4725 -96.0483 215° Southwest 351 404 16,000 -60 Level Kansas City Center
03:19PM 35.3944 -96.1119 214° Southwest 351 404 15,900 60 Descending Kansas City Center
03:20PM 35.3561 -96.1458 216° Southwest 360 414 16,100 60 Climbing Fort Worth Center
03:21PM 35.2733 -96.2108 213° Southwest 360 414 16,000  Descending Fort Worth Center
03:22PM 35.1947 -96.2753 214° Southwest 355 409 16,100  Climbing Fort Worth Center
03:23PM 35.1139 -96.3425 214° Southwest 355 409 16,100 -900 Level Fort Worth Center
03:24PM 35.0372 -96.4069 215° Southwest 345 397 14,300 -1,620 Descending Fort Worth Center
03:25PM 34.9606 -96.4686 213° Southwest 345 397 12,900 -1,200 Descending Fort Worth Center
03:26PM 34.8839 -96.5328 214° Southwest 345 397 11,900 -1,020 Descending Fort Worth Center
03:27PM 34.8069 -96.5967 214° Southwest 345 397 10,900 -960 Descending Fort Worth Center
03:28PM 34.7364 -96.6506 212° Southwest 336 387 10,000 -1,200 Descending Fort Worth Center
03:29PM 34.6803 -96.6964 214° Southwest 290 334 8,500 -1,500 Descending Fort Worth Center
03:30PM 34.6244 -96.7422 214° Southwest 259 298 7,100 -1,200 Descending Fort Worth Center
03:31PM 34.5683 -96.7881 214° Southwest 252 290 6,100 -900 Descending Fort Worth Center
03:32PM 34.5122 -96.8339 214° Southwest 252 290 5,300 -600 Descending Fort Worth Center
03:33PM 34.4561 -96.8769 212° Southwest 252 290 4,900 -420 Descending Fort Worth Center